Time;durP1;ratioP1;P1;durP2;ratioP2;P2;SDS_P1;SDS_P2;PMS_P1;PMS_P2;Temp;Humidity;BMP_temperature;BMP_pressure;BME280_temperature;BME280_humidity;BME280_pressure;Samples;Min_cycle;Max_cycle;Signal;HPM_P1;HPM_P2
2022/06/18 00:00:39;;;;;;;12.82;6.22;;;17.40;99.90;;;;;;5054124;28;20028;-69
2022/06/18 00:03:05;;;;;;;13.77;6.38;;;17.40;99.90;;;;;;5057618;28;20492;-75
2022/06/18 00:05:33;;;;;;;9.90;5.15;;;17.40;99.90;;;;;;5060800;28;20029;-74
2022/06/18 00:08:00;;;;;;;11.27;5.85;;;17.40;99.90;;;;;;5057319;28;20021;-74
2022/06/18 00:10:30;;;;;;;11.40;5.90;;;17.40;99.90;;;;;;5053177;28;20025;-74
2022/06/18 00:15:51;;;;;;;8.05;5.57;;;17.30;99.90;;;;;;5051057;28;20391;-74
2022/06/18 00:18:17;;;;;;;13.68;6.25;;;17.30;99.90;;;;;;5052619;28;20078;-70
2022/06/18 00:20:43;;;;;;;13.00;5.85;;;17.30;99.90;;;;;;5051942;28;20025;-74
2022/06/18 00:23:16;;;;;;;11.88;5.80;;;17.40;99.90;;;;;;5053798;28;20029;-73
2022/06/18 00:25:45;;;;;;;8.00;5.55;;;17.30;99.90;;;;;;5054129;28;20061;-73
2022/06/18 00:28:14;;;;;;;11.13;5.90;;;17.30;99.90;;;;;;5054237;28;20574;-73
2022/06/18 00:30:41;;;;;;;11.18;6.22;;;17.30;99.90;;;;;;5052550;28;20025;-72
2022/06/18 00:33:08;;;;;;;9.57;5.90;;;17.30;99.90;;;;;;5046989;28;20051;-69
2022/06/18 00:35:34;;;;;;;11.90;6.22;;;17.30;99.90;;;;;;5058539;28;20038;-64
2022/06/18 00:38:04;;;;;;;11.15;5.90;;;17.20;99.90;;;;;;5052729;28;20055;-65
2022/06/18 00:40:36;;;;;;;7.82;5.47;;;17.20;99.90;;;;;;5048514;28;20027;-72
2022/06/18 00:43:06;;;;;;;11.88;6.15;;;17.20;99.90;;;;;;5046652;28;20120;-73
2022/06/18 00:45:32;;;;;;;9.63;6.00;;;17.20;99.90;;;;;;5051879;28;20056;-73
2022/06/18 00:48:24;;;;;;;10.10;5.72;;;17.10;99.90;;;;;;5052203;28;20055;-73
2022/06/18 00:51:03;;;;;;;9.43;5.90;;;17.10;99.90;;;;;;5061343;28;20094;-74
2022/06/18 00:53:42;;;;;;;8.55;5.93;;;17.10;99.90;;;;;;5068723;28;20032;-72
2022/06/18 00:56:51;;;;;;;10.65;6.35;;;17.00;99.90;;;;;;5067374;28;20028;-73
2022/06/18 00:59:20;;;;;;;10.85;5.90;;;17.10;99.90;;;;;;5049424;28;20037;-74
2022/06/18 01:01:49;;;;;;;13.80;6.97;;;17.00;99.90;;;;;;5032223;28;20017;-73
2022/06/18 01:04:40;;;;;;;12.13;5.63;;;17.00;99.90;;;;;;5032977;28;20067;-72
2022/06/18 01:07:21;;;;;;;10.07;5.97;;;17.00;99.90;;;;;;5030073;28;20036;-73
2022/06/18 01:09:51;;;;;;;12.48;5.90;;;16.90;99.90;;;;;;5049071;28;20040;-72
2022/06/18 01:12:17;;;;;;;13.55;6.38;;;16.90;99.90;;;;;;5032616;28;20177;-73
2022/06/18 01:14:45;;;;;;;11.40;6.43;;;16.90;99.90;;;;;;5049103;28;20043;-73
2022/06/18 01:17:12;;;;;;;12.30;6.65;;;16.90;99.90;;;;;;5048753;28;20476;-73
2022/06/18 01:19:43;;;;;;;11.18;6.50;;;16.90;99.90;;;;;;5047613;28;20597;-75
2022/06/18 01:22:36;;;;;;;11.82;6.25;;;16.90;99.90;;;;;;5031666;28;20040;-72
2022/06/18 01:25:07;;;;;;;10.85;5.43;;;16.80;99.90;;;;;;5032715;28;20064;-73
2022/06/18 01:27:36;;;;;;;8.20;5.90;;;16.80;99.90;;;;;;5049175;28;20032;-73
2022/06/18 01:30:16;;;;;;;12.40;6.10;;;16.80;99.90;;;;;;5052572;28;20047;-74
2022/06/18 01:32:46;;;;;;;8.93;5.88;;;16.80;99.90;;;;;;5066706;28;20020;-67
2022/06/18 01:35:13;;;;;;;11.23;5.80;;;16.80;99.90;;;;;;5053388;28;20039;-73
2022/06/18 01:37:57;;;;;;;9.20;5.55;;;16.80;99.90;;;;;;5070125;28;20020;-74
2022/06/18 01:40:46;;;;;;;11.93;6.03;;;16.70;99.90;;;;;;5053318;28;20043;-72
2022/06/18 01:43:17;;;;;;;11.68;5.75;;;16.70;99.90;;;;;;5070862;28;20386;-73
2022/06/18 01:45:47;;;;;;;10.07;5.93;;;16.70;99.90;;;;;;5052951;28;20032;-72
2022/06/18 01:48:21;;;;;;;11.30;5.57;;;16.60;99.90;;;;;;5066288;28;20119;-73
2022/06/18 01:51:03;;;;;;;14.02;6.47;;;16.60;99.90;;;;;;5065866;28;20448;-74
2022/06/18 01:53:47;;;;;;;11.68;5.55;;;16.70;99.90;;;;;;5066834;28;20039;-69
2022/06/18 01:56:21;;;;;;;9.63;5.93;;;16.60;99.90;;;;;;5070996;28;20103;-74
2022/06/18 01:58:52;;;;;;;7.38;4.75;;;16.60;99.90;;;;;;5062352;28;20021;-75
2022/06/18 02:01:29;;;;;;;12.63;5.70;;;16.60;99.90;;;;;;5050707;28;20035;-74
2022/06/18 02:03:58;;;;;;;9.07;5.47;;;16.60;99.90;;;;;;5071573;28;20085;-73
2022/06/18 02:06:24;;;;;;;10.23;5.50;;;16.50;99.90;;;;;;5054130;28;20031;-73
2022/06/18 02:08:52;;;;;;;11.57;6.05;;;16.50;99.90;;;;;;5071839;28;20024;-72
2022/06/18 02:11:19;;;;;;;9.77;5.93;;;16.50;99.90;;;;;;5054109;28;20378;-74
2022/06/18 02:14:05;;;;;;;10.63;6.18;;;16.50;99.90;;;;;;5071697;28;20032;-72
2022/06/18 02:16:35;;;;;;;7.32;5.10;;;16.50;99.90;;;;;;5053673;28;20081;-74
2022/06/18 02:19:06;;;;;;;9.82;5.88;;;16.50;99.90;;;;;;5070735;28;20035;-74
2022/06/18 02:21:42;;;;;;;8.45;5.60;;;16.40;99.90;;;;;;5070809;28;20056;-73
2022/06/18 02:24:08;;;;;;;12.20;6.28;;;16.40;99.90;;;;;;5053951;28;20395;-74
2022/06/18 02:26:36;;;;;;;10.40;6.18;;;16.40;99.90;;;;;;5072483;28;20077;-74
2022/06/18 02:29:04;;;;;;;9.52;5.50;;;16.30;99.90;;;;;;5053977;28;20132;-74
2022/06/18 02:31:34;;;;;;;11.60;6.40;;;16.30;99.90;;;;;;5053793;28;20016;-74
2022/06/18 02:34:09;;;;;;;10.93;5.93;;;16.30;99.90;;;;;;5071924;28;20089;-72
2022/06/18 02:36:38;;;;;;;10.63;5.55;;;16.30;99.90;;;;;;5072031;28;20025;-74
2022/06/18 02:39:07;;;;;;;11.98;6.25;;;16.30;99.90;;;;;;5071988;28;20023;-73
2022/06/18 02:41:34;;;;;;;9.93;6.45;;;16.30;99.90;;;;;;5071927;28;20012;-74
2022/06/18 02:44:01;;;;;;;11.77;6.57;;;16.20;99.90;;;;;;5053821;28;20577;-73
2022/06/18 02:46:27;;;;;;;9.15;4.95;;;16.20;99.90;;;;;;5071867;28;20508;-69
2022/06/18 02:48:53;;;;;;;9.55;6.30;;;16.20;99.90;;;;;;5071790;28;20063;-74
2022/06/18 02:51:19;;;;;;;9.32;5.60;;;16.10;99.90;;;;;;5053560;28;20049;-74
2022/06/18 02:53:48;;;;;;;10.27;5.75;;;16.20;99.90;;;;;;5053377;28;20494;-73
2022/06/18 02:56:15;;;;;;;9.43;5.90;;;16.20;99.90;;;;;;5071970;28;20466;-74
2022/06/18 02:58:47;;;;;;;9.38;5.78;;;16.10;99.90;;;;;;5053292;28;20040;-73
2022/06/18 03:01:21;;;;;;;12.82;5.72;;;16.10;99.90;;;;;;5071406;28;20029;-74
2022/06/18 03:03:50;;;;;;;9.85;6.53;;;16.10;99.90;;;;;;5053468;28;20398;-74
2022/06/18 03:06:19;;;;;;;10.10;6.22;;;16.10;99.90;;;;;;5053259;28;20549;-74
2022/06/18 03:08:49;;;;;;;11.70;6.50;;;16.10;99.90;;;;;;5071513;28;20037;-74
2022/06/18 03:14:07;;;;;;;20.35;6.72;;;16.10;99.90;;;;;;5069600;28;20051;-75
2022/06/18 03:16:33;;;;;;;12.77;7.45;;;16.20;99.90;;;;;;5053239;28;20416;-74
2022/06/18 03:19:00;;;;;;;11.38;6.53;;;16.10;99.90;;;;;;5073026;28;20032;-75
2022/06/18 03:21:41;;;;;;;12.50;7.00;;;16.20;99.90;;;;;;5056983;28;20498;-75
2022/06/18 03:24:07;;;;;;;9.13;5.43;;;16.20;99.90;;;;;;5053629;28;20120;-75
2022/06/18 03:26:35;;;;;;;9.40;5.45;;;16.20;99.90;;;;;;5056070;28;20070;-74
2022/06/18 03:29:05;;;;;;;8.85;5.93;;;16.20;99.90;;;;;;5057050;28;20046;-74
2022/06/18 03:31:31;;;;;;;9.90;5.85;;;16.20;99.90;;;;;;5074559;28;20409;-73
2022/06/18 03:33:58;;;;;;;10.38;5.68;;;16.20;99.90;;;;;;5074725;28;20078;-75
2022/06/18 03:36:24;;;;;;;8.63;5.13;;;16.20;99.90;;;;;;5057224;28;20033;-73
2022/06/18 03:38:51;;;;;;;8.98;5.68;;;16.30;99.90;;;;;;5056586;28;20029;-75
2022/06/18 03:41:18;;;;;;;11.48;5.22;;;16.20;99.90;;;;;;5073291;28;20036;-74
2022/06/18 03:43:44;;;;;;;9.60;5.22;;;16.30;99.90;;;;;;5072339;28;20028;-72
2022/06/18 03:46:14;;;;;;;9.35;5.43;;;16.60;99.90;;;;;;5055720;28;20032;-74
2022/06/18 03:48:49;;;;;;;9.68;5.53;;;16.60;99.90;;;;;;5061845;28;20557;-70
2022/06/18 03:51:17;;;;;;;11.82;5.32;;;16.60;99.90;;;;;;5071902;28;20044;-74
2022/06/18 03:53:43;;;;;;;8.30;4.88;;;16.60;99.90;;;;;;5046797;28;20087;-74
2022/06/18 03:56:11;;;;;;;9.60;5.00;;;16.60;99.90;;;;;;5055139;28;20032;-72
2022/06/18 03:58:44;;;;;;;11.30;6.10;;;16.60;99.90;;;;;;5047097;28;20877;-74
2022/06/18 04:01:14;;;;;;;10.75;5.53;;;17.10;99.90;;;;;;5054496;28;20131;-74
2022/06/18 04:03:41;;;;;;;9.32;5.38;;;17.60;99.90;;;;;;5050997;28;20021;-73
2022/06/18 04:06:15;;;;;;;9.98;5.60;;;18.60;99.90;;;;;;5055823;28;20086;-75
2022/06/18 04:08:43;;;;;;;9.38;4.32;;;19.80;99.90;;;;;;5073577;28;20083;-74
2022/06/18 04:11:18;;;;;;;9.90;4.97;;;20.40;99.90;;;;;;5054924;28;20036;-75
2022/06/18 04:13:44;;;;;;;5.65;4.22;;;21.10;99.90;;;;;;5072589;28;20118;-76
2022/06/18 04:16:29;;;;;;;11.43;4.82;;;22.00;99.90;;;;;;5073572;28;20032;-74
2022/06/18 04:18:59;;;;;;;9.37;3.80;;;22.90;99.10;;;;;;5055908;28;20054;-75
2022/06/18 04:21:26;;;;;;;11.68;4.85;;;22.50;98.60;;;;;;5055200;28;20371;-75
2022/06/18 04:23:55;;;;;;;8.38;4.07;;;23.10;98.40;;;;;;5055707;28;20030;-75
2022/06/18 04:26:21;;;;;;;7.30;4.10;;;22.30;99.50;;;;;;5055415;28;20039;-75
2022/06/18 04:28:47;;;;;;;5.63;4.25;;;21.20;99.90;;;;;;5055921;28;20430;-72
2022/06/18 04:31:16;;;;;;;6.93;4.32;;;20.90;99.90;;;;;;5057608;28;20033;-74
2022/06/18 04:33:45;;;;;;;8.05;4.50;;;20.50;99.90;;;;;;5055067;28;20032;-74
2022/06/18 04:36:37;;;;;;;9.25;4.72;;;20.60;99.90;;;;;;5072267;28;20036;-75
2022/06/18 04:39:32;;;;;;;9.80;4.40;;;21.90;99.90;;;;;;5030991;28;20103;-74
2022/06/18 04:42:16;;;;;;;8.82;4.63;;;22.10;99.90;;;;;;5035520;28;20036;-73
2022/06/18 04:44:44;;;;;;;5.97;4.00;;;22.50;99.90;;;;;;5040154;28;20547;-74
2022/06/18 04:47:16;;;;;;;6.32;4.47;;;23.20;98.80;;;;;;5014107;28;20025;-74
2022/06/18 04:49:42;;;;;;;5.22;3.72;;;22.70;98.60;;;;;;5013944;28;20052;-75
2022/06/18 04:52:11;;;;;;;10.68;4.50;;;23.10;98.10;;;;;;5031065;28;20485;-67
2022/06/18 04:54:40;;;;;;;9.27;4.28;;;21.60;99.90;;;;;;5014113;28;20063;-73
2022/06/18 04:57:06;;;;;;;10.88;4.55;;;20.90;99.90;;;;;;5030497;28;20037;-69
2022/06/18 04:59:32;;;;;;;6.88;4.40;;;20.80;99.90;;;;;;5013959;28;20529;-71
2022/06/18 05:02:05;;;;;;;8.77;4.53;;;20.80;99.90;;;;;;5013585;28;20141;-76
2022/06/18 05:05:12;;;;;;;6.75;4.20;;;21.20;99.90;;;;;;4971974;28;20038;-71
2022/06/18 05:07:55;;;;;;;8.95;3.75;;;20.60;99.90;;;;;;4952805;28;20537;-73
2022/06/18 05:10:56;;;;;;;11.55;4.53;;;20.20;99.90;;;;;;4913310;29;20055;-74
2022/06/18 05:13:35;;;;;;;7.78;4.28;;;20.50;99.90;;;;;;4897393;29;20059;-76
2022/06/18 05:16:22;;;;;;;9.95;4.82;;;20.30;99.90;;;;;;4942901;28;20039;-73
2022/06/18 05:18:48;;;;;;;9.63;4.82;;;20.30;99.90;;;;;;4948954;28;20034;-63
2022/06/18 05:21:14;;;;;;;9.20;4.90;;;20.40;99.90;;;;;;4964317;28;20031;-63
2022/06/18 05:23:40;;;;;;;6.72;4.03;;;20.40;99.90;;;;;;4965800;28;20042;-66
2022/06/18 05:26:14;;;;;;;9.98;4.55;;;20.60;99.90;;;;;;4934626;29;20043;-64
2022/06/18 05:28:40;;;;;;;7.38;4.50;;;20.90;99.90;;;;;;4941440;28;20031;-67
2022/06/18 05:31:07;;;;;;;9.13;4.72;;;20.90;99.90;;;;;;4944371;28;20119;-74
2022/06/18 05:33:33;;;;;;;8.85;5.18;;;20.90;99.90;;;;;;4953981;28;20050;-66
2022/06/18 05:36:00;;;;;;;14.48;4.80;;;20.60;99.90;;;;;;4950872;28;20035;-74
2022/06/18 05:38:26;;;;;;;12.93;5.00;;;20.80;99.90;;;;;;4959895;28;20129;-66
2022/06/18 05:40:52;;;;;;;8.05;4.90;;;20.80;99.90;;;;;;4989547;28;20045;-71
2022/06/18 05:43:18;;;;;;;8.55;4.90;;;20.70;99.90;;;;;;4979668;28;20077;-72
2022/06/18 05:45:45;;;;;;;9.88;4.63;;;20.80;99.90;;;;;;5048686;28;20037;-72
2022/06/18 05:48:11;;;;;;;8.20;4.93;;;20.90;99.90;;;;;;5046217;28;20105;-72
2022/06/18 05:50:38;;;;;;;9.30;5.10;;;21.00;99.90;;;;;;5053020;28;20407;-71
2022/06/18 05:53:04;;;;;;;7.30;5.25;;;21.10;99.90;;;;;;5052482;28;20036;-72
2022/06/18 05:56:02;;;;;;;9.45;4.80;;;21.30;99.90;;;;;;5061339;28;20119;-72
2022/06/18 05:58:44;;;;;;;9.70;4.63;;;21.60;99.90;;;;;;5068830;28;20116;-72
2022/06/18 06:01:23;;;;;;;9.43;5.28;;;21.80;99.90;;;;;;5049816;28;20028;-70
2022/06/18 06:03:49;;;;;;;8.10;4.93;;;21.60;99.90;;;;;;5051342;28;20068;-70
2022/06/18 06:06:15;;;;;;;8.05;4.40;;;21.60;99.90;;;;;;5061701;28;20036;-73
2022/06/18 06:08:45;;;;;;;11.38;6.53;;;21.90;99.90;;;;;;5052936;28;20036;-73
2022/06/18 06:11:32;;;;;;;9.27;5.60;;;22.00;99.90;;;;;;5053554;28;20094;-72
2022/06/18 06:14:01;;;;;;;8.45;4.97;;;22.40;99.90;;;;;;5040918;28;20161;-72
2022/06/18 06:16:28;;;;;;;5.38;3.90;;;22.30;99.90;;;;;;5051571;28;20021;-73
2022/06/18 06:18:59;;;;;;;8.65;4.50;;;22.60;99.90;;;;;;5052939;28;20079;-72
2022/06/18 06:21:25;;;;;;;9.18;4.65;;;22.50;99.90;;;;;;5072149;28;20395;-71
2022/06/18 06:23:51;;;;;;;9.95;4.45;;;22.40;99.90;;;;;;5081607;28;20021;-70
2022/06/18 06:26:21;;;;;;;6.65;3.75;;;22.50;99.90;;;;;;5073485;28;20063;-65
2022/06/18 06:28:47;;;;;;;7.03;4.30;;;22.50;99.90;;;;;;5067841;28;20043;-70
2022/06/18 06:31:13;;;;;;;10.73;4.15;;;22.50;99.90;;;;;;5071286;28;20100;-71
2022/06/18 06:33:40;;;;;;;7.32;4.05;;;22.80;99.90;;;;;;5071249;28;20044;-72
2022/06/18 06:36:10;;;;;;;6.55;3.95;;;22.80;99.90;;;;;;5067421;28;20013;-73
2022/06/18 06:38:37;;;;;;;10.15;3.55;;;23.10;97.50;;;;;;5070871;28;20027;-72
2022/06/18 06:41:10;;;;;;;8.40;4.10;;;22.80;97.20;;;;;;5079796;28;20028;-72
2022/06/18 06:43:36;;;;;;;7.43;4.07;;;23.10;97.70;;;;;;5070854;28;20108;-73
2022/06/18 06:46:02;;;;;;;5.28;3.22;;;22.90;95.20;;;;;;5056525;28;20132;-72
2022/06/18 06:48:28;;;;;;;7.20;3.13;;;23.50;98.90;;;;;;5071214;28;20024;-73
2022/06/18 06:50:54;;;;;;;13.25;3.72;;;23.10;94.20;;;;;;5070553;28;20056;-73
2022/06/18 06:53:20;;;;;;;5.00;3.05;;;23.40;92.90;;;;;;5071511;28;20539;-71
2022/06/18 06:58:30;;;;;;;7.63;3.08;;;23.30;93.90;;;;;;5073169;28;20033;-73
2022/06/18 07:00:57;;;;;;;5.47;3.25;;;23.50;94.80;;;;;;5074791;28;20036;-73
2022/06/18 07:03:28;;;;;;;5.28;3.10;;;23.40;94.60;;;;;;5071729;28;20025;-74
2022/06/18 07:05:58;;;;;;;6.45;3.92;;;23.70;93.70;;;;;;5071831;28;20027;-72
2022/06/18 07:08:25;;;;;;;5.80;3.05;;;24.10;93.20;;;;;;5073055;28;20047;-66
2022/06/18 07:10:51;;;;;;;5.43;3.70;;;24.10;91.10;;;;;;5074162;28;20016;-72
2022/06/18 07:13:18;;;;;;;3.92;3.03;;;24.00;94.10;;;;;;5036752;28;20499;-71
2022/06/18 07:15:45;;;;;;;9.52;3.25;;;24.20;92.50;;;;;;5073930;28;20028;-66
2022/06/18 07:18:16;;;;;;;10.48;3.67;;;24.20;86.90;;;;;;5075114;28;20082;-71
2022/06/18 07:20:42;;;;;;;8.80;3.30;;;24.30;88.60;;;;;;5078532;28;20029;-71
2022/06/18 07:23:09;;;;;;;5.38;3.38;;;24.00;87.90;;;;;;5072310;28;20063;-70
2022/06/18 07:25:35;;;;;;;6.30;3.63;;;23.80;91.70;;;;;;5074013;28;20111;-68
2022/06/18 07:28:01;;;;;;;6.55;3.50;;;23.70;91.60;;;;;;5078032;28;20099;-71
2022/06/18 07:30:27;;;;;;;8.27;3.20;;;23.70;91.40;;;;;;5088824;28;20020;-73
2022/06/18 07:32:53;;;;;;;5.97;3.10;;;24.20;90.60;;;;;;5076074;28;20048;-63
2022/06/18 07:35:25;;;;;;;5.78;3.28;;;24.40;89.70;;;;;;5074457;28;20032;-74
2022/06/18 07:37:53;;;;;;;7.63;3.05;;;24.50;88.20;;;;;;5074786;28;20424;-74
2022/06/18 07:40:22;;;;;;;7.30;3.45;;;24.50;87.90;;;;;;5074531;28;20039;-73
2022/06/18 07:42:49;;;;;;;6.75;3.22;;;24.80;85.70;;;;;;5073722;28;20112;-71
2022/06/18 07:45:18;;;;;;;3.88;3.20;;;24.60;85.70;;;;;;5072956;28;20028;-73
2022/06/18 07:47:45;;;;;;;6.85;3.72;;;24.40;84.10;;;;;;5073868;28;20016;-74
2022/06/18 07:50:12;;;;;;;6.57;3.40;;;24.10;87.30;;;;;;5076284;28;20045;-73
2022/06/18 07:52:41;;;;;;;9.88;3.75;;;24.00;90.60;;;;;;5073851;28;20082;-73
2022/06/18 07:55:13;;;;;;;8.20;3.58;;;24.10;86.40;;;;;;5073554;28;20036;-74
2022/06/18 07:57:39;;;;;;;4.63;3.13;;;24.40;87.90;;;;;;5073101;28;20028;-72
2022/06/18 08:00:09;;;;;;;9.70;3.90;;;24.50;89.90;;;;;;5070266;28;20158;-74
2022/06/18 08:02:39;;;;;;;7.35;3.28;;;24.50;85.70;;;;;;5071560;28;20385;-73
2022/06/18 08:05:06;;;;;;;5.13;3.53;;;24.20;84.30;;;;;;5072455;28;20360;-71
2022/06/18 08:07:33;;;;;;;5.90;3.67;;;24.30;90.50;;;;;;5073826;28;20031;-73
2022/06/18 08:09:59;;;;;;;8.43;3.80;;;24.80;89.70;;;;;;5077015;28;20017;-72
2022/06/18 08:12:25;;;;;;;5.35;3.13;;;24.80;88.60;;;;;;5073573;28;20029;-72
2022/06/18 08:14:50;;;;;;;6.90;3.78;;;25.30;86.80;;;;;;5073373;28;20474;-72
2022/06/18 08:17:16;;;;;;;6.78;3.35;;;25.30;81.10;;;;;;5073156;28;20020;-73
2022/06/18 08:19:42;;;;;;;7.53;3.35;;;25.10;85.90;;;;;;5073495;28;20031;-72
2022/06/18 08:22:08;;;;;;;7.53;3.78;;;25.70;85.10;;;;;;5073738;28;20029;-73
2022/06/18 08:24:34;;;;;;;7.68;4.10;;;25.80;83.10;;;;;;5073389;28;20112;-72
2022/06/18 08:27:02;;;;;;;7.30;3.58;;;25.50;82.30;;;;;;5073585;28;20024;-72
2022/06/18 08:29:28;;;;;;;6.82;3.50;;;26.10;84.00;;;;;;5073643;28;20029;-71
2022/06/18 08:31:55;;;;;;;6.25;3.42;;;;;;;;;;5073383;28;20036;-71
2022/06/18 08:34:20;;;;;;;3.92;2.45;;;27.00;90.90;;;;;;5073555;28;20428;-72
2022/06/18 08:36:47;;;;;;;3.88;2.92;;;26.50;75.70;;;;;;5072706;28;20017;-73
2022/06/18 08:39:13;;;;;;;3.63;2.78;;;26.20;77.30;;;;;;5073135;28;20067;-73
2022/06/18 08:42:00;;;;;;;4.10;3.15;;;26.00;77.50;;;;;;5073114;28;20056;-72
2022/06/18 08:44:46;;;;;;;6.63;3.40;;;26.30;76.40;;;;;;5071036;28;20558;-73
2022/06/18 08:47:31;;;;;;;9.68;3.88;;;26.70;75.50;;;;;;5056222;28;20458;-72
2022/06/18 08:50:28;;;;;;;9.85;3.35;;;26.80;74.80;;;;;;5059289;28;20394;-73
2022/06/18 08:53:06;;;;;;;3.80;2.72;;;26.20;74.30;;;;;;5072938;28;20033;-73
2022/06/18 08:55:43;;;;;;;5.78;2.75;;;26.00;74.90;;;;;;5072609;28;20095;-73
2022/06/18 08:58:09;;;;;;;4.28;3.05;;;25.80;74.30;;;;;;5073462;28;20036;-69
2022/06/18 09:01:05;;;;;;;5.10;3.10;;;25.70;74.00;;;;;;5086665;28;20027;-73
2022/06/18 09:03:37;;;;;;;5.72;2.83;;;25.90;76.10;;;;;;5072489;28;20036;-72
2022/06/18 09:06:21;;;;;;;5.35;2.53;;;26.10;74.10;;;;;;5072858;28;20062;-73
2022/06/18 09:08:58;;;;;;;4.57;2.90;;;26.10;73.20;;;;;;5072695;28;20103;-73
2022/06/18 09:11:47;;;;;;;3.97;2.83;;;25.80;72.40;;;;;;5072354;28;20027;-71
2022/06/18 09:14:21;;;;;;;4.10;3.13;;;26.50;75.00;;;;;;5072431;28;20147;-72
2022/06/18 09:16:57;;;;;;;4.07;2.40;;;26.50;72.60;;;;;;5071104;28;20028;-72
2022/06/18 09:19:26;;;;;;;4.03;2.78;;;26.40;71.30;;;;;;5071409;28;20017;-73
2022/06/18 09:21:55;;;;;;;5.25;2.45;;;26.00;71.40;;;;;;5072233;28;20103;-71
2022/06/18 09:24:57;;;;;;;6.28;2.83;;;25.80;71.30;;;;;;5072149;28;20450;-72
2022/06/18 09:27:25;;;;;;;;;;;25.90;72.00;;;;;;5011112;28;20042;-73
2022/06/18 09:30:02;;;;;;;5.88;2.65;;;25.90;73.40;;;;;;5010166;28;20116;-72
2022/06/18 09:32:35;;;;;;;4.40;3.17;;;26.10;73.30;;;;;;5010404;28;20165;-71
2022/06/18 09:35:20;;;;;;;4.75;2.92;;;26.10;72.90;;;;;;5009820;28;20067;-72
2022/06/18 09:38:07;;;;;;;3.85;2.78;;;26.20;74.50;;;;;;5019572;28;20138;-73
2022/06/18 09:40:38;;;;;;;5.47;2.53;;;26.20;74.30;;;;;;5024466;28;20369;-73
2022/06/18 09:43:19;;;;;;;4.00;2.37;;;26.00;69.70;;;;;;5020803;28;20095;-73
2022/06/18 09:45:55;;;;;;;6.18;2.80;;;25.80;70.50;;;;;;5011165;28;20018;-73
2022/06/18 09:48:21;;;;;;;4.05;2.88;;;26.10;71.00;;;;;;5010780;28;20467;-70
2022/06/18 09:51:00;;;;;;;6.55;2.97;;;26.20;72.20;;;;;;4995463;28;20038;-73
2022/06/18 09:53:35;;;;;;;6.97;3.05;;;26.20;71.80;;;;;;4993747;28;20049;-73
2022/06/18 09:56:04;;;;;;;4.00;2.90;;;26.30;73.30;;;;;;5009798;28;20046;-72
2022/06/18 09:58:39;;;;;;;5.65;2.63;;;26.40;72.10;;;;;;5009373;28;20042;-73
2022/06/18 10:01:08;;;;;;;5.13;2.63;;;26.40;71.10;;;;;;5008755;28;20096;-73
2022/06/18 10:09:16;;;;;;;5.60;2.50;;;26.40;72.20;;;;;;5070051;28;20028;-72
2022/06/18 10:11:43;;;;;;;4.80;2.85;;;26.60;71.80;;;;;;5071054;28;20059;-72
2022/06/18 10:14:19;;;;;;;8.15;3.58;;;26.60;72.30;;;;;;5071022;28;20068;-72
2022/06/18 10:17:16;;;;;;;3.75;2.70;;;26.40;71.80;;;;;;5071288;28;20137;-73
2022/06/18 10:19:47;;;;;;;4.53;2.78;;;26.40;70.90;;;;;;5059647;28;20025;-72
2022/06/18 10:22:32;;;;;;;5.40;3.33;;;26.60;71.00;;;;;;5058800;28;20040;-72
2022/06/18 10:25:06;;;;;;;6.95;3.08;;;26.50;72.10;;;;;;5071212;28;20033;-73
2022/06/18 10:27:55;;;;;;;4.47;2.60;;;26.70;72.90;;;;;;5071350;28;20024;-72
2022/06/18 10:30:26;;;;;;;3.72;2.88;;;26.90;71.70;;;;;;5059140;28;20613;-70
2022/06/18 10:33:19;;;;;;;4.93;3.08;;;26.70;70.10;;;;;;5071849;28;20413;-72
2022/06/18 10:35:47;;;;;;;;;;;27.00;71.10;;;;;;4990506;28;20487;-73
2022/06/18 10:38:37;;;;;;;6.97;3.58;;;26.90;75.90;;;;;;4990241;28;19916;-73
2022/06/18 10:41:16;;;;;;;6.18;2.80;;;27.00;77.50;;;;;;4990001;28;20090;-73
2022/06/18 10:44:00;;;;;;;4.72;3.00;;;27.10;77.80;;;;;;4989183;28;20413;-74
2022/06/18 10:46:26;;;;;;;3.95;3.03;;;27.00;68.90;;;;;;4988805;28;20042;-74
2022/06/18 10:49:11;;;;;;;5.43;3.08;;;27.00;68.40;;;;;;4989380;28;20500;-69
2022/06/18 10:51:46;;;;;;;4.85;3.10;;;26.90;69.10;;;;;;4989761;28;20141;-73
2022/06/18 10:54:13;;;;;;;4.60;3.13;;;27.10;68.70;;;;;;4989781;28;20124;-73
2022/06/18 10:56:48;;;;;;;5.13;3.08;;;27.10;68.70;;;;;;4988914;28;20057;-73
2022/06/18 10:59:14;;;;;;;4.60;3.20;;;27.10;68.40;;;;;;4989993;28;20056;-74
2022/06/18 11:01:46;;;;;;;7.32;3.28;;;27.30;68.60;;;;;;4989266;28;20101;-72
2022/06/18 11:04:17;;;;;;;;;;;27.50;67.30;;;;;;4989408;28;20411;-72
2022/06/18 11:06:49;;;;;;;6.05;3.05;;;27.30;64.90;;;;;;4995535;28;19949;-72
2022/06/18 11:09:23;;;;;;;3.67;2.67;;;27.30;63.40;;;;;;4994217;28;20567;-72
2022/06/18 11:12:21;;;;;;;5.38;2.47;;;27.70;68.60;;;;;;4995724;28;20113;-71
2022/06/18 11:14:47;;;;;;;3.95;2.90;;;27.70;63.80;;;;;;5052546;28;20056;-67
2022/06/18 11:17:40;;;;;;;4.10;2.55;;;27.90;65.70;;;;;;5069685;28;20469;-73
2022/06/18 11:20:15;;;;;;;4.93;2.63;;;27.70;75.30;;;;;;5075526;28;20039;-73
2022/06/18 11:22:41;;;;;;;7.55;2.88;;;27.30;73.80;;;;;;5071285;28;20029;-73
2022/06/18 11:25:43;;;;;;;28.23;2.80;;;27.30;74.20;;;;;;5069309;28;20028;-73
2022/06/18 11:28:21;;;;;;;4.57;2.60;;;27.50;73.60;;;;;;5043487;28;20406;-73
2022/06/18 11:30:49;;;;;;;3.47;2.80;;;27.50;77.30;;;;;;5069867;28;20394;-74
2022/06/18 11:33:40;;;;;;;3.30;2.35;;;27.30;60.10;;;;;;5070973;28;20024;-71
2022/06/18 11:36:19;;;;;;;4.13;2.37;;;27.20;60.70;;;;;;5071393;28;20481;-74
2022/06/18 11:38:55;;;;;;;4.85;2.53;;;27.10;60.20;;;;;;5070962;28;20108;-72
2022/06/18 11:41:23;;;;;;;5.95;2.45;;;27.20;60.60;;;;;;5074890;28;20029;-73
2022/06/18 11:43:55;;;;;;;4.13;2.70;;;27.30;61.90;;;;;;5055444;28;20056;-73
2022/06/18 11:46:40;;;;;;;4.97;2.60;;;27.30;60.00;;;;;;5074516;28;20875;-73
2022/06/18 11:49:28;;;;;;;4.25;2.85;;;27.50;60.70;;;;;;5074446;28;20028;-72
2022/06/18 11:52:23;;;;;;;3.45;2.00;;;27.80;60.40;;;;;;5074321;28;20044;-73
2022/06/18 11:55:08;;;;;;;3.10;2.40;;;27.90;61.70;;;;;;5066800;28;20435;-72
2022/06/18 11:57:34;;;;;;;5.72;2.45;;;27.80;61.40;;;;;;5074345;28;20023;-73
2022/06/18 12:00:11;;;;;;;6.70;2.40;;;27.80;60.00;;;;;;5074660;28;20025;-72
2022/06/18 12:03:10;;;;;;;4.22;2.88;;;27.90;60.50;;;;;;5073409;28;20025;-73
2022/06/18 12:05:50;;;;;;;10.93;2.88;;;27.80;61.30;;;;;;5073748;28;20057;-74
2022/06/18 12:08:21;;;;;;;4.15;2.60;;;27.90;59.60;;;;;;5074286;28;20031;-74
2022/06/18 12:10:54;;;;;;;3.75;2.20;;;27.80;58.90;;;;;;5074216;28;20020;-73
2022/06/18 12:13:26;;;;;;;4.03;2.40;;;28.00;61.00;;;;;;5074106;28;20024;-74
2022/06/18 12:15:57;;;;;;;4.22;2.45;;;27.90;58.40;;;;;;5074051;28;20021;-74
2022/06/18 12:18:33;;;;;;;5.47;2.22;;;27.70;58.20;;;;;;5074159;28;20035;-74
2022/06/18 12:20:59;;;;;;;8.50;2.92;;;;;;;;;;5073853;28;20047;-72
2022/06/18 12:23:45;;;;;;;5.20;2.70;;;28.00;58.20;;;;;;5074044;28;20070;-73
2022/06/18 12:26:25;;;;;;;2.45;2.08;;;28.30;60.20;;;;;;4991729;28;20043;-73
2022/06/18 12:29:21;;;;;;;3.97;2.38;;;28.60;59.30;;;;;;4991679;28;20133;-73
2022/06/18 12:31:59;;;;;;;2.85;2.30;;;28.60;57.70;;;;;;4992249;28;20038;-73
2022/06/18 12:34:55;;;;;;;4.63;2.55;;;28.60;77.40;;;;;;4990802;28;20061;-73
2022/06/18 12:37:44;;;;;;;4.30;2.60;;;28.10;70.50;;;;;;4989123;28;20125;-73
2022/06/18 12:40:23;;;;;;;3.53;2.40;;;27.60;70.50;;;;;;4989463;28;20037;-74
2022/06/18 12:43:12;;;;;;;5.80;2.58;;;27.30;60.00;;;;;;4991779;28;20034;-73
2022/06/18 12:46:12;;;;;;;4.03;2.38;;;27.40;57.70;;;;;;4984528;28;20506;-72
2022/06/18 12:48:46;;;;;;;2.63;2.20;;;27.50;58.30;;;;;;4991540;28;20029;-73
2022/06/18 12:51:34;;;;;;;3.90;2.38;;;27.40;56.80;;;;;;4991009;28;20065;-73
2022/06/18 12:54:21;;;;;;;3.10;2.17;;;27.50;56.80;;;;;;4991363;28;20054;-71
2022/06/18 12:57:14;;;;;;;6.57;2.83;;;27.70;57.80;;;;;;4990880;28;20042;-72
2022/06/18 12:59:52;;;;;;;2.92;2.47;;;28.00;56.30;;;;;;4989301;28;20070;-73
2022/06/18 13:02:28;;;;;;;3.35;2.30;;;28.00;57.00;;;;;;4996204;28;20038;-73
2022/06/18 13:05:00;;;;;;;8.15;3.08;;;27.80;57.10;;;;;;5071223;28;20127;-71
2022/06/18 13:07:26;;;;;;;;;;;27.90;56.90;;;;;;5072978;28;20020;-70
2022/06/18 13:10:19;;;;;;;5.30;2.85;;;27.40;56.20;;;;;;5071607;28;20421;-74
2022/06/18 13:12:58;;;;;;;5.57;2.00;;;27.20;56.70;;;;;;5076075;28;20020;-70
2022/06/18 13:15:32;;;;;;;4.13;2.03;;;27.00;57.70;;;;;;5071708;28;20037;-72
2022/06/18 13:18:02;;;;;;;4.22;2.65;;;27.10;61.40;;;;;;5071052;28;20021;-75
2022/06/18 13:20:41;;;;;;;4.40;2.25;;;26.70;57.60;;;;;;5072231;28;20024;-75
2022/06/18 13:29:04;;;;;;;4.70;2.38;;;27.20;56.90;;;;;;5072575;28;20459;-75
2022/06/18 13:31:38;;;;;;;4.40;2.80;;;27.60;56.30;;;;;;5072563;28;20440;-73
2022/06/18 13:34:07;;;;;;;3.17;1.95;;;27.70;56.30;;;;;;5072527;28;20067;-73
2022/06/18 13:36:32;;;;;;;3.42;2.05;;;27.80;55.30;;;;;;5072691;28;20025;-74